createdAt,value
2018-12-14T00:01:31.957Z,99.90
2018-12-14T00:04:16.439Z,99.90
2018-12-14T00:06:54.569Z,99.90
2018-12-14T00:09:41.444Z,99.90
2018-12-14T00:12:17.691Z,99.90
2018-12-14T00:14:54.928Z,99.90
2018-12-14T00:17:32.261Z,99.90
2018-12-14T00:20:09.292Z,99.90
2018-12-14T00:22:46.905Z,99.80
2018-12-14T00:25:21.984Z,99.80
2018-12-14T00:27:59.971Z,99.70
2018-12-14T00:30:35.362Z,99.50
2018-12-14T00:33:12.668Z,99.60
2018-12-14T00:35:50.110Z,99.60
2018-12-14T00:38:30.391Z,99.70
2018-12-14T00:41:07.588Z,99.90
2018-12-14T00:43:45.337Z,99.60
2018-12-14T00:46:20.651Z,99.30
2018-12-14T00:48:55.827Z,99.20
2018-12-14T00:51:43.366Z,99.20
2018-12-14T00:54:21.379Z,99.20
2018-12-14T00:57:01.338Z,99.30
2018-12-14T00:59:38.345Z,99.20
2018-12-14T01:02:31.194Z,99.30
2018-12-14T01:05:08.233Z,99.50
2018-12-14T01:07:45.098Z,99.60
2018-12-14T01:10:20.637Z,99.90
2018-12-14T01:12:56.242Z,99.90
2018-12-14T01:15:31.832Z,99.90
2018-12-14T01:18:08.998Z,99.90
2018-12-14T01:20:44.982Z,99.90
2018-12-14T01:23:21.283Z,99.90
2018-12-14T01:25:59.179Z,99.90
2018-12-14T01:28:44.417Z,99.90
2018-12-14T01:31:24.009Z,99.80
2018-12-14T01:37:06.767Z,99.60
2018-12-14T01:39:43.907Z,99.40
2018-12-14T01:42:21.944Z,99.30
2018-12-14T01:44:57.321Z,99.40
2018-12-14T01:47:33.584Z,99.30
2018-12-14T01:50:09.077Z,99.40
2018-12-14T01:52:47.794Z,99.30
2018-12-14T01:55:24.277Z,99.40
2018-12-14T01:58:01.046Z,99.10
2018-12-14T02:00:42.342Z,98.80
2018-12-14T02:03:19.546Z,98.80
2018-12-14T02:05:55.779Z,99.00
2018-12-14T02:08:31.722Z,99.00
2018-12-14T02:11:09.489Z,99.40
2018-12-14T02:13:46.584Z,99.50
2018-12-14T02:16:24.283Z,99.90
2018-12-14T02:19:01.860Z,99.90
2018-12-14T02:21:40.328Z,99.90
2018-12-14T02:24:16.317Z,99.90
2018-12-14T02:26:53.803Z,99.90
2018-12-14T02:29:33.168Z,99.90
2018-12-14T02:32:12.391Z,99.90
2018-12-14T02:34:49.291Z,99.90
2018-12-14T02:37:37.698Z,99.90
2018-12-14T02:40:15.235Z,99.90
2018-12-14T02:42:55.114Z,99.90
2018-12-14T02:45:32.619Z,99.70
2018-12-14T02:48:07.425Z,99.60
2018-12-14T02:50:45.016Z,99.60
2018-12-14T02:53:19.970Z,99.50
2018-12-14T02:55:58.238Z,99.50
2018-12-14T02:58:35.608Z,99.40
2018-12-14T03:01:14.137Z,99.40
2018-12-14T03:03:52.033Z,99.30
2018-12-14T03:06:27.502Z,99.00
2018-12-14T03:09:06.377Z,99.00
2018-12-14T03:11:45.567Z,99.10
2018-12-14T03:14:22.998Z,99.00
2018-12-14T03:16:58.412Z,99.20
2018-12-14T03:19:36.075Z,99.10
2018-12-14T03:22:14.915Z,99.10
2018-12-14T03:24:50.305Z,98.70
2018-12-14T03:30:31.112Z,98.40
2018-12-14T03:33:12.724Z,98.60
2018-12-14T03:35:48.894Z,98.70
2018-12-14T03:38:30.253Z,98.50
2018-12-14T03:41:17.613Z,98.30
2018-12-14T03:43:54.138Z,98.30
2018-12-14T03:46:30.055Z,98.40
2018-12-14T03:49:05.187Z,98.10
2018-12-14T03:51:39.757Z,98.10
2018-12-14T03:54:17.619Z,98.30
2018-12-14T03:56:53.270Z,98.10
2018-12-14T03:59:29.655Z,98.10
2018-12-14T04:02:05.114Z,98.00
2018-12-14T04:04:47.050Z,98.00
2018-12-14T04:07:22.389Z,98.00
2018-12-14T04:10:04.682Z,97.90
2018-12-14T04:12:42.222Z,98.10
2018-12-14T04:15:19.830Z,98.20
2018-12-14T04:17:59.438Z,98.00
2018-12-14T04:20:34.978Z,97.90
2018-12-14T04:23:10.538Z,98.30
2018-12-14T04:25:46.730Z,98.50
2018-12-14T04:28:28.354Z,98.50
2018-12-14T04:31:05.176Z,98.00
2018-12-14T04:33:42.997Z,98.20
2018-12-14T04:36:23.199Z,98.00
2018-12-14T04:39:05.996Z,97.70
2018-12-14T04:41:41.376Z,97.70
2018-12-14T04:44:23.851Z,97.60
2018-12-14T04:47:03.867Z,97.70
2018-12-14T04:49:41.973Z,97.90
2018-12-14T04:52:18.053Z,98.10
2018-12-14T04:54:55.304Z,97.60
2018-12-14T04:57:31.237Z,97.30
2018-12-14T05:00:11.174Z,97.20
2018-12-14T05:02:46.603Z,97.10
2018-12-14T05:05:23.318Z,97.30
2018-12-14T05:07:58.571Z,97.20
2018-12-14T05:10:40.094Z,97.00
2018-12-14T05:13:18.883Z,97.10
2018-12-14T05:15:54.125Z,97.40
2018-12-14T05:18:41.725Z,97.20
2018-12-14T05:21:19.142Z,97.20
2018-12-14T05:27:04.791Z,97.30
2018-12-14T05:29:46.820Z,97.50
2018-12-14T05:32:26.255Z,97.40
2018-12-14T05:35:03.255Z,97.00
2018-12-14T05:37:40.222Z,97.10
2018-12-14T05:40:27.447Z,97.30
2018-12-14T05:43:05.747Z,97.30
2018-12-14T05:45:40.938Z,97.50
2018-12-14T05:48:19.004Z,97.70
2018-12-14T05:50:54.990Z,97.50
2018-12-14T05:53:34.439Z,97.40
2018-12-14T05:56:10.286Z,96.50
2018-12-14T05:58:45.251Z,96.60
2018-12-14T06:01:19.344Z,96.80
2018-12-14T06:14:09.024Z,96.20
2018-12-14T06:16:40.952Z,96.20
2018-12-14T06:24:24.653Z,96.60
2018-12-14T06:26:59.643Z,96.40
2018-12-14T06:29:35.412Z,96.40
2018-12-14T06:32:12.423Z,96.30
2018-12-14T06:34:48.840Z,96.30
2018-12-14T06:37:27.465Z,96.30
2018-12-14T06:40:10.947Z,96.00
2018-12-14T06:42:46.066Z,96.00
2018-12-14T06:48:33.498Z,96.00
2018-12-14T06:51:10.882Z,95.70
2018-12-14T06:53:50.412Z,95.40
2018-12-14T06:56:25.185Z,96.00
2018-12-14T06:59:01.917Z,95.90
2018-12-14T07:01:39.711Z,95.50
2018-12-14T07:04:16.850Z,95.60
2018-12-14T07:06:51.877Z,96.00
2018-12-14T07:09:28.560Z,96.30
2018-12-14T07:12:05.005Z,96.20
2018-12-14T07:14:41.363Z,96.40
2018-12-14T07:17:15.358Z,96.30
2018-12-14T07:19:52.477Z,96.20
2018-12-14T07:22:36.679Z,96.00
2018-12-14T07:25:11.025Z,96.00
2018-12-14T07:27:44.908Z,95.70
2018-12-14T07:30:20.487Z,95.30
2018-12-14T07:32:55.474Z,95.70
2018-12-14T07:35:41.927Z,95.40
2018-12-14T07:38:18.415Z,95.30
2018-12-14T07:40:54.201Z,95.40
2018-12-14T07:46:38.361Z,95.60
2018-12-14T07:49:12.339Z,95.30
2018-12-14T07:51:45.172Z,95.40
2018-12-14T07:54:18.331Z,95.30
2018-12-14T07:56:53.884Z,95.50
2018-12-14T08:02:33.872Z,95.10
2018-12-14T08:05:10.894Z,95.30
2018-12-14T08:07:43.722Z,95.20
2018-12-14T08:10:16.755Z,95.10
2018-12-14T08:12:56.649Z,95.10
2018-12-14T08:15:36.186Z,95.00
2018-12-14T08:21:18.157Z,95.10
2018-12-14T08:23:53.416Z,95.00
2018-12-14T08:26:26.260Z,94.80
2018-12-14T08:28:59.866Z,94.90
2018-12-14T08:31:41.385Z,95.00
2018-12-14T08:34:16.214Z,95.00
2018-12-14T08:36:55.285Z,94.90
2018-12-14T08:39:28.446Z,94.50
2018-12-14T08:42:03.543Z,94.80
2018-12-14T08:44:38.723Z,94.30
2018-12-14T08:47:13.880Z,94.10
2018-12-14T08:49:46.606Z,94.20
2018-12-14T08:52:22.335Z,94.20
2018-12-14T08:54:55.105Z,94.30
2018-12-14T08:57:28.446Z,94.10
2018-12-14T09:00:02.036Z,94.30
2018-12-14T09:02:41.823Z,94.40
2018-12-14T09:05:17.257Z,94.10
2018-12-14T09:07:56.256Z,94.00
2018-12-14T09:13:53.669Z,93.60
2018-12-14T09:16:28.873Z,93.60
2018-12-14T09:19:02.678Z,93.50
2018-12-14T09:21:40.418Z,93.70
2018-12-14T09:24:16.356Z,93.50
2018-12-14T09:26:55.305Z,93.50
2018-12-14T09:29:27.882Z,93.80
2018-12-14T09:32:01.534Z,93.00
2018-12-14T09:34:35.824Z,92.80
2018-12-14T09:37:08.643Z,92.90
2018-12-14T09:39:41.798Z,92.90
2018-12-14T09:42:19.485Z,92.60
2018-12-14T09:44:52.199Z,92.20
2018-12-14T09:47:29.668Z,92.60
2018-12-14T09:50:02.488Z,92.30
2018-12-14T09:52:36.385Z,92.60
2018-12-14T09:55:08.839Z,92.10
2018-12-14T09:57:43.562Z,92.10
2018-12-14T10:00:18.677Z,91.60
2018-12-14T10:02:56.006Z,91.70
2018-12-14T10:05:32.634Z,91.70
2018-12-14T10:08:08.109Z,91.70
2018-12-14T10:10:43.623Z,91.20
2018-12-14T10:13:16.552Z,91.30
2018-12-14T10:15:54.441Z,91.60
2018-12-14T10:18:31.892Z,91.20
2018-12-14T10:21:08.670Z,91.30
2018-12-14T10:23:45.626Z,90.90
2018-12-14T10:29:24.564Z,91.00
2018-12-14T10:32:04.243Z,91.20
2018-12-14T10:34:50.420Z,90.80
2018-12-14T10:37:26.271Z,90.40
2018-12-14T10:40:01.235Z,90.70
2018-12-14T10:42:38.042Z,90.50
2018-12-14T10:45:11.412Z,90.20
2018-12-14T10:47:46.903Z,90.30
2018-12-14T10:50:34.507Z,89.80
2018-12-14T10:53:09.318Z,89.90
2018-12-14T10:55:44.673Z,90.10
2018-12-14T10:58:17.740Z,90.10
2018-12-14T11:00:58.779Z,89.60
2018-12-14T11:03:32.070Z,89.90
2018-12-14T11:06:05.770Z,89.50
2018-12-14T11:08:43.176Z,89.60
2018-12-14T11:11:19.096Z,89.60
2018-12-14T11:16:58.875Z,89.40
2018-12-14T11:19:31.725Z,89.40
2018-12-14T11:22:04.938Z,89.60
2018-12-14T11:24:38.913Z,89.10
2018-12-14T11:27:12.111Z,89.20
2018-12-14T11:29:47.500Z,88.40
2018-12-14T11:35:38.539Z,88.10
2018-12-14T11:38:13.808Z,88.00
2018-12-14T11:40:47.588Z,87.70
2018-12-14T11:43:22.885Z,87.60
2018-12-14T11:46:10.652Z,87.20
2018-12-14T11:48:47.800Z,86.80
2018-12-14T11:51:26.306Z,87.00
2018-12-14T11:54:03.223Z,87.10
2018-12-14T11:56:40.496Z,86.80
2018-12-14T11:59:17.352Z,86.60
2018-12-14T12:01:55.632Z,86.50
2018-12-14T12:04:30.314Z,86.20
2018-12-14T12:07:05.397Z,86.00
2018-12-14T12:09:39.877Z,86.00
2018-12-14T12:15:22.855Z,86.00
2018-12-14T12:17:59.653Z,85.50
2018-12-14T12:20:34.867Z,85.50
2018-12-14T12:23:15.521Z,86.00
2018-12-14T12:28:56.627Z,86.00
2018-12-14T12:31:32.207Z,86.30
2018-12-14T12:34:06.582Z,86.30
2018-12-14T12:36:41.270Z,86.30
2018-12-14T12:39:16.587Z,86.70
2018-12-14T12:41:55.057Z,86.70
2018-12-14T12:44:35.754Z,86.70
2018-12-14T12:47:13.023Z,87.00
2018-12-14T12:49:59.741Z,87.10
2018-12-14T12:52:36.648Z,87.50
2018-12-14T12:55:15.015Z,87.60
2018-12-14T12:57:51.785Z,87.60
2018-12-14T13:00:28.174Z,87.20
2018-12-14T13:03:08.422Z,87.50
2018-12-14T13:05:44.251Z,87.50
2018-12-14T13:08:19.404Z,87.40
2018-12-14T13:11:06.757Z,87.40
2018-12-14T13:13:43.743Z,87.50
2018-12-14T13:16:24.505Z,87.50
2018-12-14T13:19:00.369Z,87.50
2018-12-14T13:21:35.346Z,87.40
2018-12-14T13:24:11.309Z,87.70
2018-12-14T13:26:46.065Z,88.00
2018-12-14T13:29:26.361Z,88.20
2018-12-14T13:32:03.565Z,88.40
2018-12-14T13:34:37.684Z,88.30
2018-12-14T13:37:16.028Z,88.30
2018-12-14T13:39:48.827Z,88.40
2018-12-14T13:42:26.199Z,88.30
2018-12-14T13:45:01.217Z,88.00
2018-12-14T13:47:36.449Z,88.20
2018-12-14T13:50:19.680Z,88.00
2018-12-14T13:56:00.017Z,88.20
2018-12-14T13:58:37.852Z,88.30
2018-12-14T14:01:12.290Z,88.30
2018-12-14T14:03:47.659Z,88.40
2018-12-14T14:06:26.856Z,88.20
2018-12-14T14:09:07.474Z,88.10
2018-12-14T14:11:46.781Z,87.90
2018-12-14T14:14:21.230Z,88.10
2018-12-14T14:16:58.299Z,88.30
2018-12-14T14:19:35.099Z,88.20
2018-12-14T14:22:12.789Z,87.90
2018-12-14T14:24:55.016Z,88.00
2018-12-14T14:27:28.925Z,88.20
2018-12-14T14:30:03.266Z,88.60
2018-12-14T14:32:39.883Z,88.60
2018-12-14T14:35:16.025Z,88.50
2018-12-14T14:38:03.790Z,88.70
2018-12-14T14:46:50.551Z,88.60
2018-12-14T14:49:26.878Z,88.80
2018-12-14T14:52:01.697Z,88.90
2018-12-14T14:54:44.295Z,88.70
2018-12-14T14:57:20.292Z,88.70
2018-12-14T15:00:01.903Z,88.70
2018-12-14T15:02:39.368Z,88.90
2018-12-14T15:05:12.865Z,88.80
2018-12-14T15:07:45.905Z,88.70
2018-12-14T15:10:24.583Z,88.80
2018-12-14T15:12:59.934Z,88.60
2018-12-14T15:15:36.244Z,88.80
2018-12-14T15:18:15.632Z,88.90
2018-12-14T15:20:49.440Z,88.90
2018-12-14T15:23:23.150Z,88.90
2018-12-14T15:25:57.226Z,89.60
2018-12-14T15:28:32.751Z,89.50
2018-12-14T15:31:14.068Z,89.40
2018-12-14T15:34:00.699Z,89.60
2018-12-14T15:36:35.555Z,90.00
2018-12-14T15:39:16.873Z,89.50
2018-12-14T15:41:55.517Z,89.60
2018-12-14T15:44:30.774Z,89.90
2018-12-14T15:47:03.601Z,90.00
2018-12-14T15:49:38.869Z,90.00
2018-12-14T15:52:11.689Z,90.30
2018-12-14T15:54:49.287Z,89.90
2018-12-14T16:00:33.083Z,90.00
2018-12-14T16:03:05.998Z,89.90
2018-12-14T16:05:43.462Z,90.10
2018-12-14T16:08:29.865Z,90.10
2018-12-14T16:11:06.402Z,90.30
2018-12-14T16:13:46.717Z,90.10
2018-12-14T16:16:25.135Z,89.70
2018-12-14T16:18:59.737Z,89.90
2018-12-14T16:21:34.577Z,89.90
2018-12-14T16:24:13.237Z,89.90
2018-12-14T16:26:48.462Z,90.30
2018-12-14T16:29:19.654Z,90.10
2018-12-14T16:31:58.166Z,90.30
2018-12-14T16:34:31.208Z,90.20
2018-12-14T16:37:06.859Z,90.00
2018-12-14T16:39:42.199Z,90.20
2018-12-14T16:42:15.131Z,90.50
2018-12-14T16:44:48.033Z,90.50
2018-12-14T16:47:21.253Z,90.50
2018-12-14T16:49:58.283Z,90.10
2018-12-14T16:52:36.218Z,89.80
2018-12-14T16:55:09.030Z,89.70
2018-12-14T16:57:44.148Z,89.80
2018-12-14T17:00:17.105Z,89.60
2018-12-14T17:02:49.601Z,89.60
2018-12-14T17:05:22.668Z,90.00
2018-12-14T17:08:00.743Z,89.90
2018-12-14T17:10:34.232Z,89.80
2018-12-14T17:13:09.827Z,89.80
2018-12-14T17:15:42.474Z,90.00
2018-12-14T17:18:15.350Z,90.30
2018-12-14T17:20:50.890Z,90.30
2018-12-14T17:23:26.236Z,90.20
2018-12-14T17:25:59.123Z,89.60
2018-12-14T17:28:39.512Z,89.90
2018-12-14T17:31:13.312Z,89.80
2018-12-14T17:33:49.703Z,90.10
2018-12-14T17:36:23.054Z,90.30
2018-12-14T17:38:59.465Z,90.50
2018-12-14T17:41:38.851Z,90.70
2018-12-14T17:44:15.152Z,90.70
2018-12-14T17:46:48.862Z,90.30
2018-12-14T17:49:28.302Z,90.10
2018-12-14T17:52:00.483Z,90.50
2018-12-14T17:54:33.677Z,90.50
2018-12-14T17:57:07.144Z,90.60
2018-12-14T17:59:40.640Z,90.90
2018-12-14T18:02:15.735Z,90.90
2018-12-14T18:04:54.203Z,90.70
2018-12-14T18:07:26.803Z,91.20
2018-12-14T18:10:02.331Z,90.70
2018-12-14T18:12:37.856Z,90.70
2018-12-14T18:15:12.831Z,91.00
2018-12-14T18:17:58.332Z,91.20
2018-12-14T18:20:31.864Z,91.40
2018-12-14T18:23:08.806Z,91.70
2018-12-14T18:25:41.700Z,91.70
2018-12-14T18:28:20.611Z,91.70
2018-12-14T18:30:55.289Z,91.80
2018-12-14T18:33:33.208Z,91.80
2018-12-14T18:36:07.839Z,91.80
2018-12-14T18:38:43.216Z,91.30
2018-12-14T18:41:20.301Z,90.70
2018-12-14T18:43:53.250Z,90.70
2018-12-14T18:46:27.153Z,90.70
2018-12-14T18:49:02.813Z,90.90
2018-12-14T18:51:35.499Z,91.40
2018-12-14T18:54:12.103Z,91.60
2018-12-14T18:56:46.920Z,91.70
2018-12-14T18:59:22.152Z,91.80
2018-12-14T19:01:57.715Z,91.20
2018-12-14T19:04:30.579Z,91.00
2018-12-14T19:07:04.540Z,90.30
2018-12-14T19:09:40.275Z,89.70
2018-12-14T19:12:15.620Z,88.90
2018-12-14T19:14:49.687Z,89.20
2018-12-14T19:17:25.548Z,88.80
2018-12-14T19:19:59.666Z,89.10
2018-12-14T19:22:35.018Z,89.10
2018-12-14T19:25:10.958Z,89.50
2018-12-14T19:27:46.403Z,89.80
2018-12-14T19:30:19.149Z,89.80
2018-12-14T19:32:54.541Z,89.60
2018-12-14T19:35:29.608Z,89.70
2018-12-14T19:38:04.883Z,90.10
2018-12-14T19:40:37.800Z,90.50
2018-12-14T19:43:12.619Z,90.60
2018-12-14T19:45:52.657Z,90.50
2018-12-14T19:48:25.868Z,90.80
2018-12-14T19:51:05.317Z,90.50
2018-12-14T19:53:38.346Z,91.10
2018-12-14T19:56:13.438Z,91.40
2018-12-14T19:58:52.323Z,91.70
2018-12-14T20:01:25.903Z,91.90
2018-12-14T20:04:00.877Z,91.90
2018-12-14T20:06:35.756Z,92.00
2018-12-14T20:09:12.682Z,91.90
2018-12-14T20:11:49.011Z,91.90
2018-12-14T20:14:24.243Z,92.20
2018-12-14T20:17:02.572Z,91.70
2018-12-14T20:19:43.323Z,91.20
2018-12-14T20:22:29.065Z,91.40
2018-12-14T20:25:08.498Z,92.00
2018-12-14T20:27:54.929Z,92.20
2018-12-14T20:30:29.872Z,91.40
2018-12-14T20:33:07.058Z,90.70
2018-12-14T20:35:42.685Z,88.90
2018-12-14T20:38:18.781Z,87.30
2018-12-14T20:40:52.824Z,87.30
2018-12-14T20:43:31.032Z,86.80
2018-12-14T20:46:07.726Z,86.40
2018-12-14T20:51:22.619Z,85.40
2018-12-14T20:54:00.151Z,85.10
2018-12-14T20:56:34.647Z,85.10
2018-12-14T20:59:15.552Z,84.30
2018-12-14T21:01:51.054Z,83.80
2018-12-14T21:04:25.899Z,82.80
2018-12-14T21:07:02.768Z,82.30
2018-12-14T21:09:38.929Z,82.30
2018-12-14T21:12:12.688Z,81.80
2018-12-14T21:17:48.957Z,82.20
2018-12-14T21:20:29.402Z,82.30
2018-12-14T21:23:06.590Z,82.30
2018-12-14T21:25:40.112Z,82.10
2018-12-14T21:28:14.190Z,81.30
2018-12-14T21:30:48.188Z,81.70
2018-12-14T21:33:24.356Z,81.60
2018-12-14T21:35:57.781Z,81.20
2018-12-14T21:38:32.159Z,81.10
2018-12-14T21:41:05.781Z,81.00
2018-12-14T21:43:43.741Z,80.90
2018-12-14T21:46:17.795Z,80.70
2018-12-14T21:48:53.831Z,80.90
2018-12-14T21:51:30.741Z,81.10
2018-12-14T21:54:06.249Z,81.00
2018-12-14T21:56:48.463Z,80.60
2018-12-14T21:59:24.885Z,80.40
2018-12-14T22:01:58.448Z,80.70
2018-12-14T22:04:33.302Z,80.50
2018-12-14T22:07:15.365Z,80.30
2018-12-14T22:09:54.599Z,80.40
2018-12-14T22:12:30.402Z,80.10
2018-12-14T22:15:07.913Z,80.10
2018-12-14T22:17:42.183Z,80.00
2018-12-14T22:20:21.496Z,79.80
2018-12-14T22:22:57.886Z,79.90
2018-12-14T22:25:34.069Z,79.80
2018-12-14T22:28:08.279Z,79.30
2018-12-14T22:30:44.320Z,79.20
2018-12-14T22:33:28.658Z,78.90
2018-12-14T22:36:03.383Z,78.80
2018-12-14T22:38:39.570Z,78.90
2018-12-14T22:41:16.284Z,78.80
2018-12-14T22:43:51.149Z,78.90
2018-12-14T22:46:25.087Z,79.20
2018-12-14T22:49:02.849Z,79.20
2018-12-14T22:51:37.721Z,79.20
2018-12-14T22:54:11.574Z,79.20
2018-12-14T22:56:47.553Z,79.00
2018-12-14T22:59:25.662Z,79.00
2018-12-14T23:02:03.841Z,79.60
2018-12-14T23:04:39.796Z,79.60
2018-12-14T23:07:14.011Z,79.80
2018-12-14T23:09:50.333Z,79.80
2018-12-14T23:12:29.412Z,80.30
2018-12-14T23:15:08.604Z,80.50
2018-12-14T23:17:42.655Z,80.00
2018-12-14T23:20:17.130Z,79.40
2018-12-14T23:22:53.308Z,79.30
2018-12-14T23:25:31.039Z,79.00
2018-12-14T23:28:05.709Z,78.80
2018-12-14T23:30:41.806Z,79.30
2018-12-14T23:33:15.771Z,79.70
2018-12-14T23:35:52.396Z,80.10
2018-12-14T23:38:26.795Z,80.10
2018-12-14T23:41:08.880Z,79.80
2018-12-14T23:43:46.564Z,79.70
2018-12-14T23:46:21.113Z,79.50
2018-12-14T23:49:02.896Z,79.80
2018-12-14T23:51:39.652Z,79.70
2018-12-14T23:54:16.603Z,80.10
2018-12-14T23:56:51.787Z,80.00
2018-12-14T23:59:28.055Z,80.00
